createdAt,value
2023-04-15T00:04:46.984Z,2.75
2023-04-15T00:10:31.574Z,2.75
2023-04-15T00:16:18.422Z,2.75
2023-04-15T00:22:01.555Z,2.75
2023-04-15T00:27:49.247Z,2.75
2023-04-15T00:33:31.596Z,2.75
2023-04-15T00:38:44.294Z,2.75
2023-04-15T00:44:32.959Z,2.75
2023-04-15T00:50:18.738Z,2.75
2023-04-15T00:56:05.092Z,2.75
2023-04-15T01:01:53.249Z,3.30
2023-04-15T01:07:10.056Z,2.75
2023-04-15T01:13:01.640Z,2.45
2023-04-15T01:18:10.529Z,2.45
2023-04-15T01:23:20.250Z,2.45
2023-04-15T01:28:45.396Z,2.45
2023-04-15T01:34:02.974Z,2.45
2023-04-15T01:39:52.573Z,1.90
2023-04-15T01:45:19.718Z,2.45
2023-04-15T01:50:55.417Z,2.45
2023-04-15T01:56:48.999Z,1.90
2023-04-15T02:01:59.774Z,2.45
2023-04-15T02:07:42.206Z,1.90
2023-04-15T02:13:12.706Z,1.90
2023-04-15T02:18:35.109Z,1.90
2023-04-15T02:24:25.547Z,1.90
2023-04-15T02:29:15.075Z,1.90
2023-04-15T02:34:22.956Z,1.90
2023-04-15T02:39:30.479Z,1.05
2023-04-15T02:44:37.752Z,1.05
2023-04-15T02:49:48.073Z,1.05
2023-04-15T02:54:55.519Z,1.05
2023-04-15T03:00:02.855Z,1.05
2023-04-15T03:05:10.273Z,1.05
2023-04-15T03:10:18.471Z,1.60
2023-04-15T03:15:25.774Z,1.05
2023-04-15T03:20:33.137Z,1.05
2023-04-15T03:25:40.305Z,1.60
2023-04-15T03:30:47.523Z,1.60
2023-04-15T03:35:54.820Z,1.60
2023-04-15T03:41:02.098Z,1.60
2023-04-15T03:46:09.337Z,1.05
2023-04-15T03:51:16.532Z,1.60
2023-04-15T03:56:23.731Z,1.60
2023-04-15T04:01:31.006Z,0.75
2023-04-15T04:06:38.306Z,0.75
2023-04-15T04:11:45.577Z,0.75
2023-04-15T04:16:52.817Z,0.75
2023-04-15T04:21:59.973Z,0.75
2023-04-15T04:27:07.215Z,0.75
2023-04-15T04:32:14.542Z,0.75
2023-04-15T04:37:21.713Z,0.75
2023-04-15T04:42:28.880Z,0.75
2023-04-15T04:47:36.150Z,0.75
2023-04-15T04:52:43.352Z,0.75
2023-04-15T04:57:50.544Z,0.75
2023-04-15T05:02:57.932Z,0.75
2023-04-15T05:08:05.305Z,0.75
2023-04-15T05:13:12.580Z,0.75
2023-04-15T05:18:19.828Z,0.75
2023-04-15T05:23:27.079Z,0.75
2023-04-15T05:28:34.382Z,0.75
2023-04-15T05:33:42.024Z,1.27
2023-04-15T05:38:49.545Z,0.75
2023-04-15T05:44:06.125Z,0.75
2023-04-15T05:49:13.954Z,0.75
2023-04-15T05:54:21.389Z,0.75
2023-04-15T05:59:29.075Z,-0.11
2023-04-15T06:04:44.882Z,0.41
2023-04-15T06:09:52.445Z,0.41
2023-04-15T06:15:07.515Z,-0.11
2023-04-15T06:20:15.009Z,-0.11
2023-04-15T06:25:57.975Z,0.41
2023-04-15T06:31:08.720Z,0.41
2023-04-15T06:36:56.387Z,0.41
2023-04-15T06:42:12.052Z,0.41
2023-04-15T06:47:37.135Z,0.41
2023-04-15T06:52:32.018Z,-0.11
2023-04-15T06:57:39.323Z,-0.11
2023-04-15T07:02:46.687Z,0.41
2023-04-15T07:07:54.111Z,-0.11
2023-04-15T07:13:11.248Z,0.41
2023-04-15T07:18:53.679Z,0.41
2023-04-15T07:24:01.141Z,0.41
2023-04-15T07:29:16.272Z,0.41
2023-04-15T07:35:05.665Z,0.41
2023-04-15T07:40:28.325Z,0.41
2023-04-15T07:45:36.087Z,0.41
2023-04-15T07:51:02.290Z,-0.11
2023-04-15T07:56:09.974Z,0.41
2023-04-15T08:01:52.553Z,-0.11
2023-04-15T08:07:39.321Z,0.41
2023-04-15T08:12:46.589Z,-0.11
2023-04-15T08:17:54.117Z,0.41
2023-04-15T08:23:06.267Z,0.41
2023-04-15T08:28:28.942Z,0.41
2023-04-15T08:33:36.289Z,0.41
2023-04-15T08:38:43.455Z,0.92
2023-04-15T08:43:50.715Z,1.78
2023-04-15T08:48:57.986Z,1.78
2023-04-15T08:54:05.092Z,1.78
2023-04-15T08:59:12.278Z,1.27
2023-04-15T09:04:19.672Z,1.27
2023-04-15T09:09:26.652Z,1.27
2023-04-15T09:14:33.914Z,2.13
2023-04-15T09:19:42.723Z,2.13
2023-04-15T09:24:49.884Z,2.13
2023-04-15T09:29:57.103Z,1.60
2023-04-15T09:35:04.281Z,1.60
2023-04-15T09:40:11.443Z,1.60
2023-04-15T09:45:18.637Z,1.60
2023-04-15T09:50:25.840Z,1.60
2023-04-15T09:55:32.995Z,2.45
2023-04-15T10:00:40.309Z,2.45
2023-04-15T10:05:48.806Z,2.45
2023-04-15T10:10:55.969Z,2.45
2023-04-15T10:16:03.220Z,2.45
2023-04-15T10:21:10.515Z,2.45
2023-04-15T10:26:17.775Z,2.45
2023-04-15T10:31:24.925Z,2.45
2023-04-15T10:36:32.116Z,1.33
2023-04-15T10:41:39.299Z,1.90
2023-04-15T10:46:46.625Z,1.90
2023-04-15T10:51:53.815Z,1.90
2023-04-15T10:57:00.946Z,1.90
2023-04-15T11:02:08.327Z,1.90
2023-04-15T11:07:15.543Z,1.90
2023-04-15T11:12:22.709Z,1.33
2023-04-15T11:17:30.024Z,1.33
2023-04-15T11:22:37.176Z,1.33
2023-04-15T11:27:44.333Z,0.74
2023-04-15T11:32:51.541Z,1.33
2023-04-15T11:37:58.745Z,0.74
2023-04-15T11:43:06.006Z,0.74
2023-04-15T11:48:13.252Z,0.74
2023-04-15T11:53:20.513Z,0.74
2023-04-15T11:58:27.760Z,0.74
2023-04-15T12:03:35.078Z,0.74
2023-04-15T12:08:42.266Z,0.74
2023-04-15T12:13:49.482Z,0.74
2023-04-15T12:18:56.708Z,0.74
2023-04-15T12:24:04.366Z,0.74
2023-04-15T12:29:11.095Z,0.74
2023-04-15T12:34:20.184Z,0.74
2023-04-15T12:39:29.281Z,0.74
2023-04-15T12:44:34.650Z,0.74
2023-04-15T12:49:41.862Z,2.17
2023-04-15T12:54:49.155Z,2.17
2023-04-15T12:59:56.429Z,2.17
2023-04-15T13:05:03.650Z,2.17
2023-04-15T13:10:10.964Z,2.17
2023-04-15T13:15:18.703Z,1.58
2023-04-15T13:20:25.950Z,2.17
2023-04-15T13:25:33.191Z,2.17
2023-04-15T13:30:40.509Z,2.17
2023-04-15T13:35:47.692Z,2.17
2023-04-15T13:40:55.153Z,2.17
2023-04-15T13:46:02.524Z,2.17
2023-04-15T13:51:12.970Z,2.75
2023-04-15T13:56:20.250Z,2.17
2023-04-15T14:01:27.551Z,2.17
2023-04-15T14:06:34.744Z,1.58
2023-04-15T14:11:42.173Z,2.75
2023-04-15T14:16:49.534Z,2.17
2023-04-15T14:21:56.769Z,2.17
2023-04-15T14:27:06.019Z,2.17
2023-04-15T14:32:14.404Z,2.17
2023-04-15T14:37:20.726Z,2.17
2023-04-15T14:42:28.266Z,2.17
2023-04-15T14:47:35.533Z,2.17
2023-04-15T14:52:42.816Z,1.58
2023-04-15T14:57:50.309Z,2.17
2023-04-15T15:02:57.636Z,2.17
2023-04-15T15:08:04.849Z,2.17
2023-04-15T15:13:12.252Z,1.58
2023-04-15T15:18:19.794Z,2.17
2023-04-15T15:23:27.729Z,1.58
2023-04-15T15:28:35.068Z,1.58
2023-04-15T15:33:42.236Z,2.17
2023-04-15T15:38:49.456Z,2.17
2023-04-15T15:43:56.705Z,2.17
2023-04-15T15:49:04.038Z,2.17
2023-04-15T15:54:11.127Z,2.17
2023-04-15T15:59:18.344Z,2.17
2023-04-15T16:04:25.768Z,2.17
2023-04-15T16:09:33.134Z,2.17
2023-04-15T16:14:40.525Z,2.17
2023-04-15T16:19:58.001Z,2.17
2023-04-15T16:24:54.940Z,2.17
2023-04-15T16:30:02.199Z,2.17
2023-04-15T16:35:09.628Z,2.17
2023-04-15T16:40:17.251Z,2.17
2023-04-15T16:45:27.932Z,2.17
2023-04-15T16:50:35.433Z,2.17
2023-04-15T16:55:43.071Z,2.17
2023-04-15T17:00:50.485Z,2.17
2023-04-15T17:05:57.644Z,2.17
2023-04-15T17:11:04.850Z,3.01
2023-04-15T17:16:12.139Z,3.01
2023-04-15T17:21:19.591Z,3.01
2023-04-15T17:26:27.011Z,3.01
2023-04-15T17:31:34.484Z,2.75
2023-04-15T17:36:41.718Z,3.30
2023-04-15T17:41:49.426Z,3.84
2023-04-15T17:46:57.205Z,3.84
2023-04-15T17:52:04.475Z,3.84
2023-04-15T17:57:11.966Z,3.84
2023-04-15T18:02:19.817Z,3.84
2023-04-15T18:07:27.061Z,3.84
2023-04-15T18:12:34.702Z,3.84
2023-04-15T18:17:42.351Z,3.84
2023-04-15T18:22:50.036Z,3.84
2023-04-15T18:27:57.539Z,3.84
2023-04-15T18:33:05.189Z,3.30
2023-04-15T18:38:12.708Z,3.30
2023-04-15T18:43:20.396Z,3.30
2023-04-15T18:48:28.072Z,3.30
2023-04-15T18:53:35.723Z,4.69
2023-04-15T18:59:26.317Z,4.69
2023-04-15T19:03:51.181Z,4.15
2023-04-15T19:08:58.595Z,4.15
2023-04-15T19:14:05.826Z,4.15
2023-04-15T19:19:13.478Z,4.15
2023-04-15T19:24:20.816Z,4.15
2023-04-15T19:29:29.131Z,4.15
2023-04-15T19:34:36.952Z,4.69
2023-04-15T19:39:44.573Z,4.69
2023-04-15T19:44:52.279Z,4.69
2023-04-15T19:50:00.035Z,4.69
2023-04-15T19:55:07.722Z,4.69
2023-04-15T20:00:15.332Z,4.69
2023-04-15T20:05:22.997Z,4.69
2023-04-15T20:10:30.558Z,4.15
2023-04-15T20:15:38.294Z,4.15
2023-04-15T20:20:45.910Z,4.15
2023-04-15T20:25:53.495Z,4.15
2023-04-15T20:31:01.246Z,4.15
2023-04-15T20:36:09.890Z,4.15
2023-04-15T20:41:17.585Z,4.15
2023-04-15T20:46:27.176Z,4.15
2023-04-15T20:51:32.523Z,4.15
2023-04-15T20:56:40.216Z,4.15
2023-04-15T21:01:47.670Z,5.00
2023-04-15T21:06:56.099Z,5.00
2023-04-15T21:12:03.327Z,5.00
2023-04-15T21:17:11.374Z,5.00
2023-04-15T21:22:17.902Z,5.00
2023-04-15T21:27:25.085Z,5.00
2023-04-15T21:32:32.277Z,5.00
2023-04-15T21:37:39.550Z,5.00
2023-04-15T21:42:47.343Z,5.00
2023-04-15T21:48:05.845Z,4.44
2023-04-15T21:53:01.910Z,4.44
2023-04-15T21:58:09.252Z,4.44
2023-04-15T22:03:16.611Z,4.44
2023-04-15T22:08:23.794Z,4.44
2023-04-15T22:13:31.030Z,5.00
2023-04-15T22:18:38.323Z,5.00
2023-04-15T22:23:45.586Z,5.00
2023-04-15T22:28:52.830Z,5.00
2023-04-15T22:34:00.176Z,4.44
2023-04-15T22:39:07.899Z,4.44
2023-04-15T22:44:14.924Z,4.44
2023-04-15T22:49:22.121Z,4.44
2023-04-15T22:54:29.863Z,4.44
2023-04-15T22:59:37.133Z,4.44
2023-04-15T23:04:44.589Z,4.44
2023-04-15T23:09:56.021Z,4.44
2023-04-15T23:15:04.180Z,4.44
2023-04-15T23:20:46.622Z,4.44
2023-04-15T23:26:17.086Z,4.44
2023-04-15T23:31:12.444Z,4.44
2023-04-15T23:36:35.444Z,4.44
2023-04-15T23:42:03.928Z,4.44
2023-04-15T23:46:56.053Z,4.44
2023-04-15T23:52:12.144Z,4.44
2023-04-15T23:57:40.816Z,4.15
